Time;durP1;ratioP1;P1;durP2;ratioP2;P2;SDS_P1;SDS_P2;PMS_P1;PMS_P2;Temp;Humidity;BMP_temperature;BMP_pressure;BME280_temperature;BME280_humidity;BME280_pressure;Samples;Min_cycle;Max_cycle;Signal;HPM_P1;HPM_P2
2023/10/26 00:00:56;;;;;;;3.57;2.60;;;6.80;99.90;6.00;98681;;;;591890;242;23982;-80
2023/10/26 00:03:23;;;;;;;3.60;2.50;;;6.80;99.90;6.00;98678;;;;579822;245;24081;-75
2023/10/26 00:05:52;;;;;;;2.57;2.37;;;6.80;99.90;6.00;98673;;;;591553;242;24098;-77
2023/10/26 00:08:20;;;;;;;2.77;2.37;;;6.80;99.90;6.00;98672;;;;579866;243;24043;-77
2023/10/26 00:10:50;;;;;;;4.20;3.00;;;6.80;99.90;6.00;98671;;;;591885;243;25084;-76
2023/10/26 00:13:17;;;;;;;4.03;3.40;;;6.80;99.90;6.00;98666;;;;579281;248;24071;-79
2023/10/26 00:15:45;;;;;;;2.97;2.63;;;6.80;99.90;6.00;98674;;;;573378;247;24061;-76
2023/10/26 00:18:14;;;;;;;6.53;2.87;;;6.80;99.90;6.00;98656;;;;591861;242;24125;-78
2023/10/26 00:20:40;;;;;;;7.43;3.33;;;6.80;99.90;6.00;98663;;;;579046;246;24068;-81
2023/10/26 00:23:08;;;;;;;3.23;2.40;;;6.80;99.90;6.00;98673;;;;591342;243;23999;-78
2023/10/26 00:25:36;;;;;;;2.93;2.70;;;6.80;99.90;5.90;98666;;;;578730;248;24060;-78
2023/10/26 00:28:04;;;;;;;2.90;2.70;;;6.80;99.90;6.00;98663;;;;591244;243;24004;-81
2023/10/26 00:30:33;;;;;;;3.50;3.10;;;6.80;99.90;6.00;98662;;;;579011;248;24084;-77
2023/10/26 00:33:01;;;;;;;4.50;2.97;;;6.80;99.90;5.90;98663;;;;590924;243;23969;-78
2023/10/26 00:35:28;;;;;;;5.67;4.13;;;6.80;99.90;6.00;98669;;;;578953;248;24103;-80
2023/10/26 00:37:56;;;;;;;6.20;3.77;;;6.80;99.90;6.00;98662;;;;572284;247;24042;-77
2023/10/26 00:40:24;;;;;;;4.03;3.53;;;6.80;99.90;6.00;98669;;;;591604;242;23970;-78
2023/10/26 00:43:04;;;;;;;5.03;3.80;;;6.80;99.90;5.90;98663;;;;580121;247;24047;-83
2023/10/26 00:45:30;;;;;;;6.23;4.27;;;6.70;99.90;5.90;98657;;;;574945;248;24106;-83
2023/10/26 00:47:58;;;;;;;4.10;3.70;;;6.70;99.90;5.90;98655;;;;575251;248;24046;-78
2023/10/26 00:50:30;;;;;;;5.17;4.67;;;6.70;99.90;5.90;98659;;;;592222;241;24026;-80
2023/10/26 00:52:58;;;;;;;7.17;4.50;;;6.70;99.90;5.90;98664;;;;575833;247;24076;-79
2023/10/26 00:55:22;;;;;;;6.07;4.53;;;6.70;99.90;5.90;98655;;;;578518;247;24090;-78
2023/10/26 00:57:53;;;;;;;4.57;4.17;;;6.80;99.90;5.90;98655;;;;591751;242;24069;-81
2023/10/26 01:00:22;;;;;;;8.40;4.47;;;6.80;99.90;5.90;98650;;;;591725;242;23975;-76
2023/10/26 01:02:46;;;;;;;6.13;5.43;;;6.70;99.90;5.90;98636;;;;580595;244;24089;-76
2023/10/26 01:05:15;;;;;;;5.47;4.67;;;6.80;99.90;5.90;98637;;;;581004;247;24069;-79
2023/10/26 01:07:42;;;;;;;5.50;4.77;;;6.80;99.90;6.00;98632;;;;592122;241;23985;-84
2023/10/26 01:10:14;;;;;;;5.10;4.60;;;6.80;99.90;6.00;98630;;;;579930;243;24104;-85
2023/10/26 01:12:39;;;;;;;5.67;4.43;;;6.80;99.90;6.00;98620;;;;580096;247;24058;-81
2023/10/26 01:15:11;;;;;;;6.07;3.83;;;6.80;99.90;6.00;98618;;;;580413;247;24046;-82
2023/10/26 01:17:35;;;;;;;3.87;3.10;;;6.80;99.90;6.00;98613;;;;569967;248;24080;-80
2023/10/26 01:20:05;;;;;;;5.43;3.40;;;6.90;99.90;6.00;98612;;;;591560;243;24032;-80
2023/10/26 01:22:30;;;;;;;2.83;2.10;;;6.90;99.90;6.00;98615;;;;569635;248;24077;-79
2023/10/26 01:24:58;;;;;;;2.70;2.40;;;6.80;99.90;6.00;98610;;;;580868;243;24101;-79
2023/10/26 01:27:26;;;;;;;3.03;2.40;;;6.80;99.90;6.00;98613;;;;579190;248;24147;-83
2023/10/26 01:29:55;;;;;;;3.13;2.83;;;6.80;99.90;6.00;98603;;;;591468;243;24030;-80
2023/10/26 01:32:22;;;;;;;3.77;3.30;;;6.80;99.90;6.00;98605;;;;579004;246;24096;-79
2023/10/26 01:34:51;;;;;;;6.30;3.43;;;6.80;99.90;6.00;98599;;;;579901;247;24135;-82
2023/10/26 01:37:19;;;;;;;3.83;2.73;;;6.80;99.90;6.00;98606;;;;579890;247;24054;-78
2023/10/26 01:39:48;;;;;;;3.67;2.87;;;6.80;99.90;6.00;98601;;;;591988;242;23975;-82
2023/10/26 01:42:15;;;;;;;10.10;2.70;;;6.80;99.90;6.00;98604;;;;579800;246;24065;-80
2023/10/26 01:44:43;;;;;;;6.37;2.43;;;6.50;99.90;6.00;98603;;;;579859;248;24111;-80
2023/10/26 01:47:14;;;;;;;8.77;3.13;;;6.80;99.90;6.00;98609;;;;591840;243;24113;-80
2023/10/26 01:49:39;;;;;;;3.07;2.87;;;6.80;99.90;5.90;98603;;;;579867;243;24079;-78
2023/10/26 01:52:07;;;;;;;19.43;2.60;;;6.80;99.90;6.00;98602;;;;592472;242;23969;-77
2023/10/26 01:54:35;;;;;;;3.43;2.83;;;6.80;99.90;5.90;98604;;;;585726;245;24051;-77
2023/10/26 01:57:03;;;;;;;8.07;3.23;;;6.80;99.90;5.90;98591;;;;592631;243;24067;-76
2023/10/26 01:59:30;;;;;;;9.70;3.07;;;6.80;99.90;5.90;98594;;;;579926;248;26266;-79
2023/10/26 02:01:58;;;;;;;4.07;3.53;;;6.80;99.90;5.90;98593;;;;573706;246;24083;-77
2023/10/26 02:04:26;;;;;;;3.07;2.77;;;6.80;99.90;6.00;98590;;;;592860;242;23982;-77
2023/10/26 02:06:54;;;;;;;5.43;2.77;;;6.80;99.90;6.00;98595;;;;580279;247;24071;-77
2023/10/26 02:09:23;;;;;;;3.70;2.90;;;6.80;99.90;5.90;98588;;;;591999;238;23980;-79
2023/10/26 02:11:51;;;;;;;4.20;2.97;;;6.80;99.90;5.90;98581;;;;579708;248;24183;-76
2023/10/26 02:14:19;;;;;;;4.77;3.33;;;6.70;99.90;5.90;98582;;;;592037;242;23964;-76
2023/10/26 02:16:46;;;;;;;7.17;3.60;;;6.70;99.90;5.90;98579;;;;579780;248;26208;-77
2023/10/26 02:19:16;;;;;;;6.23;3.20;;;6.70;99.90;5.90;98586;;;;592024;242;23989;-76
2023/10/26 02:21:43;;;;;;;5.97;2.90;;;6.70;99.90;5.90;98580;;;;579461;245;25089;-76
2023/10/26 02:24:11;;;;;;;6.20;3.23;;;6.80;99.90;5.90;98588;;;;580554;243;23991;-79
2023/10/26 02:26:39;;;;;;;7.50;3.37;;;6.70;99.90;5.90;98580;;;;579093;248;24035;-75
2023/10/26 02:29:07;;;;;;;5.23;3.83;;;6.80;99.90;6.00;98578;;;;591355;242;24011;-76
2023/10/26 02:31:35;;;;;;;9.93;4.70;;;6.80;99.90;6.00;98571;;;;569608;248;24057;-77
2023/10/26 02:34:03;;;;;;;9.47;5.93;;;6.80;99.90;6.00;98562;;;;586317;243;34325;-76
2023/10/26 02:36:31;;;;;;;6.97;3.70;;;6.80;99.90;6.00;98566;;;;579037;248;24085;-77
2023/10/26 02:39:00;;;;;;;11.83;4.27;;;6.90;99.90;6.00;98569;;;;591233;242;23972;-79
2023/10/26 02:41:28;;;;;;;22.37;3.67;;;6.90;99.90;6.10;98564;;;;578823;248;24100;-76
2023/10/26 02:43:56;;;;;;;6.63;3.93;;;6.90;99.90;6.10;98567;;;;591539;243;24012;-76
2023/10/26 02:46:24;;;;;;;10.03;3.90;;;6.90;99.90;6.10;98565;;;;579140;248;24075;-76
2023/10/26 02:48:52;;;;;;;9.80;4.13;;;7.00;99.90;6.10;98564;;;;572593;248;24112;-77
2023/10/26 02:51:20;;;;;;;10.90;4.13;;;6.90;99.90;6.10;98561;;;;580231;247;24045;-76
2023/10/26 02:53:48;;;;;;;6.90;3.83;;;7.00;99.90;6.10;98558;;;;591503;243;24015;-77
2023/10/26 02:56:16;;;;;;;14.77;5.07;;;7.00;99.90;6.10;98559;;;;584186;245;24054;-76
2023/10/26 02:58:44;;;;;;;10.70;4.37;;;7.00;99.90;6.10;98558;;;;578923;248;24062;-80
2023/10/26 03:01:13;;;;;;;13.30;6.43;;;7.00;99.90;6.10;98559;;;;584988;243;34296;-78
2023/10/26 03:03:41;;;;;;;4.97;3.17;;;7.00;99.90;6.10;98553;;;;578667;248;24102;-77
2023/10/26 03:06:09;;;;;;;6.77;3.13;;;6.90;99.90;6.10;98558;;;;574589;248;24036;-76
2023/10/26 03:08:37;;;;;;;5.53;3.10;;;7.00;99.90;6.10;98554;;;;591208;239;23988;-77
2023/10/26 03:11:05;;;;;;;2.97;2.70;;;6.90;99.90;6.10;98545;;;;578897;248;24061;-79
2023/10/26 03:13:33;;;;;;;4.10;2.60;;;7.00;99.90;6.20;98540;;;;575963;247;24046;-78
2023/10/26 03:16:01;;;;;;;2.77;2.37;;;7.00;99.90;6.20;98535;;;;581429;247;24043;-78
2023/10/26 03:18:30;;;;;;;4.40;2.83;;;7.00;99.90;6.20;98540;;;;581213;247;24076;-77
2023/10/26 03:21:01;;;;;;;5.43;2.77;;;7.00;99.90;6.10;98536;;;;581035;247;24046;-79
2023/10/26 03:23:25;;;;;;;3.40;2.97;;;7.00;99.90;6.10;98536;;;;574941;247;24094;-77
2023/10/26 03:25:53;;;;;;;3.73;2.60;;;7.00;99.90;6.10;98535;;;;580645;243;24035;-79
2023/10/26 03:28:21;;;;;;;3.87;3.20;;;7.00;99.90;6.20;98529;;;;592144;242;23979;-76
2023/10/26 03:30:53;;;;;;;4.67;3.30;;;7.00;99.90;6.10;98524;;;;570355;248;24062;-80
2023/10/26 03:33:18;;;;;;;5.67;3.77;;;7.00;99.90;6.10;98519;;;;590719;243;23993;-76
2023/10/26 03:35:46;;;;;;;4.33;2.90;;;7.00;99.90;6.10;98516;;;;579403;248;24174;-77
2023/10/26 03:38:14;;;;;;;8.07;3.80;;;7.00;99.90;6.10;98523;;;;580507;246;24020;-78
2023/10/26 03:40:42;;;;;;;5.30;3.40;;;6.90;99.90;6.10;98513;;;;580523;247;24084;-76
2023/10/26 03:43:10;;;;;;;3.47;3.07;;;7.00;99.90;6.10;98513;;;;591796;243;24034;-77
2023/10/26 03:45:38;;;;;;;6.23;3.37;;;6.90;99.90;6.10;98513;;;;578987;248;24057;-76
2023/10/26 03:48:07;;;;;;;6.90;4.80;;;6.90;99.90;6.10;98506;;;;578960;247;24064;-77
2023/10/26 03:50:35;;;;;;;6.67;4.83;;;6.90;99.90;6.10;98510;;;;574578;248;24096;-77
2023/10/26 03:53:03;;;;;;;6.77;5.57;;;6.90;99.90;6.10;98520;;;;586090;242;25155;-76
2023/10/26 03:55:30;;;;;;;7.10;5.70;;;6.90;99.90;6.10;98515;;;;591210;243;23952;-77
2023/10/26 03:57:59;;;;;;;6.83;5.60;;;6.90;99.90;6.10;98514;;;;568552;248;24086;-76
2023/10/26 04:00:27;;;;;;;7.83;6.23;;;6.90;99.90;6.10;98514;;;;580275;247;24066;-76
2023/10/26 04:02:56;;;;;;;5.83;5.20;;;6.90;99.90;6.10;98506;;;;579861;247;24062;-77
2023/10/26 04:05:23;;;;;;;9.03;6.03;;;6.90;99.90;6.00;98511;;;;591063;243;23991;-80
2023/10/26 04:07:52;;;;;;;11.93;7.47;;;6.90;99.90;6.10;98516;;;;578958;248;24080;-79
2023/10/26 04:10:19;;;;;;;8.30;6.10;;;6.90;99.90;6.10;98506;;;;590624;240;24026;-77
2023/10/26 04:12:47;;;;;;;8.30;6.23;;;6.90;99.90;6.10;98504;;;;578893;248;24100;-76
2023/10/26 04:15:15;;;;;;;11.80;6.43;;;6.90;99.90;6.00;98498;;;;578967;248;24090;-77
2023/10/26 04:17:43;;;;;;;16.83;7.83;;;6.90;99.90;6.00;98500;;;;575255;248;24062;-77
2023/10/26 04:20:11;;;;;;;22.97;12.53;;;6.90;99.90;6.00;98503;;;;580224;247;24109;-79
2023/10/26 04:22:39;;;;;;;40.93;18.33;;;6.90;99.90;6.00;98503;;;;580182;247;24048;-79
2023/10/26 04:25:08;;;;;;;33.73;16.37;;;6.90;99.90;6.10;98495;;;;573331;247;24065;-77
2023/10/26 04:27:37;;;;;;;16.47;9.70;;;6.90;99.90;6.10;98492;;;;580455;246;24065;-78
2023/10/26 04:30:06;;;;;;;22.10;12.70;;;6.90;99.90;6.10;98492;;;;592408;242;23991;-78
2023/10/26 04:32:33;;;;;;;16.40;7.80;;;6.90;99.90;6.10;98480;;;;580472;246;24165;-77
2023/10/26 04:35:02;;;;;;;15.90;6.93;;;7.00;99.90;6.10;98482;;;;592125;242;23971;-78
2023/10/26 04:37:33;;;;;;;31.83;7.07;;;6.90;99.90;6.10;98475;;;;579722;248;24059;-78
2023/10/26 04:40:02;;;;;;;29.17;6.20;;;7.00;99.90;6.10;98466;;;;580861;246;25112;-77
2023/10/26 04:42:30;;;;;;;11.80;4.50;;;7.00;99.90;6.10;98466;;;;580764;247;24096;-80
2023/10/26 04:44:58;;;;;;;13.63;5.90;;;7.00;99.90;6.10;98474;;;;592061;242;23985;-77
2023/10/26 04:47:26;;;;;;;8.30;4.17;;;6.90;99.90;6.10;98471;;;;579376;248;24049;-81
2023/10/26 04:49:54;;;;;;;8.67;5.10;;;7.00;99.90;6.10;98470;;;;591617;242;23988;-78
2023/10/26 04:52:22;;;;;;;10.67;4.73;;;6.90;99.90;6.10;98471;;;;579094;248;24077;-77
2023/10/26 04:54:50;;;;;;;8.73;4.77;;;6.90;99.90;6.10;98468;;;;575199;247;24037;-76
2023/10/26 04:57:18;;;;;;;9.23;4.67;;;6.90;99.90;6.10;98461;;;;591548;242;24010;-77
2023/10/26 04:59:46;;;;;;;10.43;6.20;;;7.00;99.90;6.20;98474;;;;584262;245;24171;-76
2023/10/26 05:02:14;;;;;;;10.00;5.97;;;7.00;99.90;6.20;98469;;;;572251;247;24071;-77
2023/10/26 05:04:41;;;;;;;7.47;4.70;;;7.00;99.90;6.20;98480;;;;590981;242;24056;-76
2023/10/26 05:07:09;;;;;;;9.93;4.20;;;7.00;99.90;6.20;98475;;;;578890;248;24046;-76
2023/10/26 05:09:37;;;;;;;7.33;4.67;;;7.00;99.90;6.10;98462;;;;574800;248;24096;-76
2023/10/26 05:12:05;;;;;;;10.33;4.20;;;7.00;99.90;6.10;98457;;;;591527;242;24053;-76
2023/10/26 05:14:33;;;;;;;8.13;4.07;;;7.00;99.90;6.10;98459;;;;590482;243;24093;-76
2023/10/26 05:17:01;;;;;;;7.53;4.20;;;6.90;99.90;6.10;98468;;;;580205;247;24049;-77
2023/10/26 05:19:29;;;;;;;4.70;3.50;;;6.90;99.90;6.10;98451;;;;591368;242;24083;-77
2023/10/26 05:21:57;;;;;;;5.47;3.73;;;6.90;99.90;6.10;98448;;;;578983;248;24074;-76
2023/10/26 05:24:25;;;;;;;7.87;3.67;;;7.00;99.90;6.10;98450;;;;572499;247;24090;-76
2023/10/26 05:26:53;;;;;;;5.40;3.97;;;7.00;99.90;6.20;98448;;;;590991;242;24005;-77
2023/10/26 05:29:21;;;;;;;8.27;4.37;;;7.00;99.90;6.20;98454;;;;579025;248;24109;-76
2023/10/26 05:31:49;;;;;;;7.17;4.33;;;7.00;99.90;6.20;98453;;;;579884;248;24038;-76
2023/10/26 05:34:17;;;;;;;8.20;5.20;;;7.10;99.90;6.30;98458;;;;592203;243;24014;-82
2023/10/26 05:36:45;;;;;;;6.27;4.53;;;7.10;99.90;6.30;98450;;;;580559;246;24059;-83
2023/10/26 05:39:13;;;;;;;5.93;4.40;;;7.10;99.90;6.30;98457;;;;576889;247;24050;-83
2023/10/26 05:41:41;;;;;;;9.10;3.67;;;7.10;99.90;6.30;98449;;;;581868;246;24088;-81
2023/10/26 05:44:09;;;;;;;5.83;3.87;;;7.10;99.90;6.30;98450;;;;581729;247;24090;-82
2023/10/26 05:46:37;;;;;;;9.33;4.10;;;7.10;99.90;6.30;98457;;;;581649;247;24046;-84
2023/10/26 05:49:05;;;;;;;4.60;3.27;;;7.10;99.90;6.30;98458;;;;581632;247;24086;-85
2023/10/26 05:51:32;;;;;;;7.63;3.43;;;7.10;99.90;6.30;98452;;;;581439;247;24276;-83
2023/10/26 05:54:00;;;;;;;3.47;2.90;;;7.10;99.90;6.30;98453;;;;592789;242;23976;-81
2023/10/26 05:56:28;;;;;;;5.40;4.40;;;7.10;99.90;6.30;98463;;;;580227;248;24101;-81
2023/10/26 05:58:56;;;;;;;4.57;3.57;;;7.20;99.90;6.30;98464;;;;592713;243;23982;-82
2023/10/26 06:01:25;;;;;;;5.83;4.03;;;7.20;99.90;6.30;98451;;;;584867;245;24084;-80
2023/10/26 06:03:55;;;;;;;7.83;4.50;;;7.20;99.90;6.30;98452;;;;579601;247;24066;-80
2023/10/26 06:06:24;;;;;;;4.33;3.60;;;7.20;99.90;6.30;98446;;;;578728;242;24037;-82
2023/10/26 06:08:49;;;;;;;5.80;4.40;;;7.10;99.90;6.30;98445;;;;573393;246;24054;-81
2023/10/26 06:11:17;;;;;;;5.97;3.90;;;7.20;99.90;6.30;98453;;;;592160;242;23982;-82
2023/10/26 06:13:45;;;;;;;6.03;4.30;;;7.20;99.90;6.30;98452;;;;571728;248;24068;-79
2023/10/26 06:16:16;;;;;;;4.73;4.00;;;7.20;99.90;6.30;98452;;;;591763;243;24031;-79
2023/10/26 06:18:44;;;;;;;4.70;4.00;;;7.20;99.90;6.30;98456;;;;578883;248;24100;-78
2023/10/26 06:21:13;;;;;;;7.13;3.50;;;7.20;99.90;6.30;98451;;;;572167;247;24052;-76
2023/10/26 06:23:44;;;;;;;7.13;4.47;;;7.20;99.90;6.30;98448;;;;579817;247;24071;-77
2023/10/26 06:26:09;;;;;;;6.70;4.63;;;7.20;99.90;6.30;98461;;;;576831;248;24056;-78
2023/10/26 06:28:36;;;;;;;10.00;4.83;;;7.20;99.90;6.30;98461;;;;590814;243;23988;-79
2023/10/26 06:31:13;;;;;;;10.90;5.03;;;7.10;99.90;6.30;98453;;;;579076;248;24096;-81
2023/10/26 06:33:41;;;;;;;7.60;5.40;;;7.10;99.90;6.30;98453;;;;581243;243;24031;-85
2023/10/26 06:36:10;;;;;;;10.40;5.57;;;7.20;99.90;6.30;98462;;;;579752;247;24080;-78
2023/10/26 06:38:35;;;;;;;8.13;4.97;;;7.10;99.90;6.30;98459;;;;574826;248;24113;-76
2023/10/26 06:41:03;;;;;;;8.77;6.90;;;7.20;99.90;6.30;98461;;;;580142;247;24067;-80
2023/10/26 06:43:31;;;;;;;10.77;6.30;;;7.10;99.90;6.30;98460;;;;591203;242;23990;-76
2023/10/26 06:46:00;;;;;;;9.67;5.93;;;7.20;99.90;6.30;98460;;;;579064;248;24083;-78
2023/10/26 06:48:27;;;;;;;6.40;4.67;;;7.20;99.90;6.40;98463;;;;581179;245;24041;-77
2023/10/26 06:51:04;;;;;;;5.97;4.13;;;7.20;99.90;6.40;98465;;;;581586;245;24066;-78
2023/10/26 06:53:31;;;;;;;5.63;4.13;;;7.20;99.90;6.40;98459;;;;592410;242;24069;-85
2023/10/26 06:56:00;;;;;;;6.13;4.13;;;7.20;99.90;6.40;98459;;;;576002;247;24068;-80
2023/10/26 06:58:27;;;;;;;5.07;3.60;;;7.20;99.90;6.40;98461;;;;592052;242;24017;-83
2023/10/26 07:00:56;;;;;;;4.20;3.80;;;7.20;99.90;6.30;98450;;;;579894;245;24073;-80
2023/10/26 07:03:24;;;;;;;5.70;4.17;;;7.20;99.90;6.30;98455;;;;580215;243;23982;-77
2023/10/26 07:05:52;;;;;;;7.13;4.13;;;7.20;99.90;6.40;98458;;;;579305;245;24111;-79
2023/10/26 07:08:22;;;;;;;3.93;3.53;;;7.10;99.90;6.40;98450;;;;572705;243;24071;-80
2023/10/26 07:10:47;;;;;;;3.87;3.43;;;7.20;99.90;6.30;98455;;;;572436;248;24096;-84
2023/10/26 07:13:17;;;;;;;4.40;3.10;;;7.20;99.90;6.40;98441;;;;580696;243;25082;-79
2023/10/26 07:15:44;;;;;;;6.63;3.93;;;7.20;99.90;6.40;98449;;;;572865;247;24056;-78
2023/10/26 07:18:15;;;;;;;5.53;3.87;;;7.30;99.90;6.40;98446;;;;591234;243;24076;-77
2023/10/26 07:20:40;;;;;;;3.27;2.97;;;7.30;99.90;6.40;98447;;;;576882;243;23986;-81
2023/10/26 07:23:09;;;;;;;5.00;3.57;;;7.30;99.90;6.40;98440;;;;579564;248;24079;-80
2023/10/26 07:25:37;;;;;;;4.83;3.97;;;7.20;99.90;6.40;98447;;;;591944;243;24067;-78
2023/10/26 07:28:05;;;;;;;4.00;3.10;;;7.20;99.90;6.40;98452;;;;580421;247;24118;-77
2023/10/26 07:30:33;;;;;;;4.57;3.40;;;7.30;99.90;6.40;98448;;;;591696;242;24110;-77
2023/10/26 07:33:01;;;;;;;4.53;3.40;;;7.20;99.90;6.40;98441;;;;580403;247;24088;-76
2023/10/26 07:35:29;;;;;;;5.33;3.17;;;7.30;99.90;6.40;98452;;;;579515;248;24081;-77
2023/10/26 07:37:57;;;;;;;2.97;2.33;;;7.20;99.90;6.40;98443;;;;573496;247;24045;-76
2023/10/26 07:40:25;;;;;;;10.07;5.03;;;7.30;99.90;6.50;98449;;;;586609;243;34239;-76
2023/10/26 07:42:53;;;;;;;6.87;3.23;;;7.30;99.90;6.50;98448;;;;579296;248;24091;-77
2023/10/26 07:45:25;;;;;;;5.53;3.73;;;7.30;99.90;6.60;98452;;;;572611;248;24147;-79
2023/10/26 07:47:49;;;;;;;11.60;4.03;;;7.40;99.90;6.60;98454;;;;572258;248;24067;-81
2023/10/26 07:50:19;;;;;;;7.27;3.03;;;7.40;99.90;6.60;98456;;;;591709;242;23992;-82
2023/10/26 07:52:45;;;;;;;3.43;2.20;;;7.50;99.90;6.70;98455;;;;579582;246;24139;-76
2023/10/26 07:55:16;;;;;;;3.30;2.97;;;7.50;99.90;6.70;98452;;;;580443;246;24090;-77
2023/10/26 07:57:45;;;;;;;7.40;3.60;;;7.60;99.90;6.70;98449;;;;579883;248;24056;-78
2023/10/26 08:00:12;;;;;;;9.87;4.50;;;7.50;99.90;6.80;98452;;;;573557;245;24135;-78
2023/10/26 08:02:40;;;;;;;7.83;4.43;;;7.90;99.90;6.80;98454;;;;578327;243;24087;-77
2023/10/26 08:05:11;;;;;;;10.83;7.00;;;7.60;99.90;6.80;98456;;;;591164;243;24105;-77
2023/10/26 08:07:39;;;;;;;7.57;5.07;;;7.70;99.90;6.80;98459;;;;585512;243;24112;-77
2023/10/26 08:10:04;;;;;;;7.80;3.93;;;7.70;99.90;6.80;98460;;;;577405;244;24077;-76
2023/10/26 08:12:32;;;;;;;6.03;3.90;;;7.70;99.90;6.80;98455;;;;587717;243;24116;-78
2023/10/26 08:15:01;;;;;;;6.93;3.87;;;7.60;99.90;6.80;98455;;;;590858;243;24065;-78
2023/10/26 08:17:28;;;;;;;13.90;5.23;;;7.60;99.90;6.80;98451;;;;590349;243;24113;-78
2023/10/26 08:20:06;;;;;;;;;;;;;;;;;;;;;
2023/10/26 08:22:32;;;;;;;11.52;6.57;;;7.70;99.90;6.80;98450;;;;612193;226;34611;-79
2023/10/26 08:25:03;;;;;;;6.80;3.57;;;7.70;99.90;6.90;98451;;;;595996;237;24074;-78
2023/10/26 08:27:27;;;;;;;3.50;2.33;;;7.70;99.90;7.00;98441;;;;595636;237;24083;-83
2023/10/26 08:29:55;;;;;;;3.97;2.87;;;7.80;99.90;7.00;98442;;;;595735;237;24102;-81
2023/10/26 08:32:22;;;;;;;5.23;3.77;;;7.80;99.90;7.00;98439;;;;595659;237;24121;-81
2023/10/26 08:34:51;;;;;;;4.10;3.13;;;7.90;99.90;7.10;98431;;;;595502;237;24029;-81
2023/10/26 08:37:19;;;;;;;10.80;3.43;;;7.90;99.90;7.20;98445;;;;595277;237;24122;-82
2023/10/26 08:39:49;;;;;;;4.43;3.03;;;8.00;99.90;7.20;98442;;;;594973;237;24030;-79
2023/10/26 08:42:17;;;;;;;4.00;3.20;;;8.00;99.90;7.30;98446;;;;595053;237;25087;-80
2023/10/26 08:44:44;;;;;;;4.77;2.73;;;8.10;99.90;7.30;98445;;;;593643;237;24212;-79
2023/10/26 08:47:14;;;;;;;4.03;3.00;;;8.20;99.90;7.30;98443;;;;595188;237;24157;-77
2023/10/26 08:49:40;;;;;;;7.67;3.33;;;8.20;99.90;7.30;98437;;;;595293;237;24047;-77
2023/10/26 08:52:08;;;;;;;3.77;2.83;;;8.20;99.90;7.40;98447;;;;593847;237;24094;-79
2023/10/26 08:54:37;;;;;;;3.77;2.80;;;8.20;99.90;7.40;98443;;;;595489;237;24091;-77
2023/10/26 08:57:05;;;;;;;6.90;3.20;;;8.20;99.90;7.40;98445;;;;593642;237;24049;-79
2023/10/26 08:59:37;;;;;;;6.73;3.13;;;8.20;99.90;7.50;98446;;;;593201;237;24058;-82
2023/10/26 09:02:01;;;;;;;4.40;2.87;;;8.30;99.90;7.60;98443;;;;603823;237;24055;-77
2023/10/26 09:04:31;;;;;;;4.30;3.00;;;8.40;99.90;7.60;98437;;;;594969;237;24100;-81
2023/10/26 09:06:56;;;;;;;6.33;4.77;;;8.40;99.90;7.60;98446;;;;589120;237;35039;-80
2023/10/26 09:09:25;;;;;;;4.20;3.77;;;8.50;99.90;7.60;98443;;;;592708;241;24084;-82
2023/10/26 09:11:56;;;;;;;4.90;3.70;;;8.50;99.90;7.70;98439;;;;593324;241;24090;-78
2023/10/26 09:14:24;;;;;;;4.33;3.43;;;8.60;99.90;7.80;98442;;;;581807;241;24073;-77
2023/10/26 09:16:49;;;;;;;7.67;3.30;;;8.70;99.90;7.90;98451;;;;592945;237;24313;-86
2023/10/26 09:19:20;;;;;;;5.13;2.90;;;8.80;99.90;8.00;98438;;;;592517;238;24125;-85
2023/10/26 09:21:59;;;;;;;5.53;3.47;;;8.80;99.90;8.10;98439;;;;592645;241;24068;-83
2023/10/26 09:24:31;;;;;;;4.80;2.93;;;8.90;99.90;8.20;98431;;;;583528;241;24077;-84
2023/10/26 09:26:55;;;;;;;6.50;3.40;;;9.00;99.90;8.30;98444;;;;583388;241;24134;-82
2023/10/26 09:29:38;;;;;;;4.27;3.73;;;9.20;99.90;8.40;98440;;;;591892;241;24125;-82
2023/10/26 09:32:06;;;;;;;6.37;4.57;;;9.30;99.90;8.40;98442;;;;584440;241;24066;-85
2023/10/26 09:34:42;;;;;;;5.57;4.10;;;9.30;99.90;8.40;98442;;;;593819;241;24110;-85
2023/10/26 09:37:13;;;;;;;6.57;4.83;;;9.30;99.90;8.40;98446;;;;583803;241;28347;-83
2023/10/26 09:39:42;;;;;;;8.50;4.97;;;9.30;99.90;8.30;98438;;;;593028;241;24159;-85
2023/10/26 09:42:09;;;;;;;6.97;4.60;;;9.30;99.90;8.40;98435;;;;583653;241;24131;-86
2023/10/26 09:44:34;;;;;;;8.13;4.90;;;9.30;99.90;8.50;98437;;;;583982;241;24091;-82
2023/10/26 09:47:02;;;;;;;5.70;4.37;;;9.30;99.90;8.50;98434;;;;592980;241;24078;-85
2023/10/26 09:49:30;;;;;;;8.47;5.27;;;9.40;99.90;8.60;98436;;;;584054;241;24094;-78
2023/10/26 09:51:58;;;;;;;7.33;4.57;;;9.40;99.90;8.70;98430;;;;593020;241;24150;-78
2023/10/26 09:54:26;;;;;;;8.67;4.43;;;9.50;99.90;8.70;98427;;;;593258;241;24167;-86
2023/10/26 09:57:05;;;;;;;9.27;4.60;;;9.60;99.90;8.60;98426;;;;593013;241;26241;-82
2023/10/26 09:59:34;;;;;;;9.33;4.47;;;9.50;99.90;8.60;98424;;;;592894;241;24114;-84
2023/10/26 10:02:02;;;;;;;10.40;5.00;;;9.50;99.90;8.70;98417;;;;593077;238;24094;-86
2023/10/26 10:04:39;;;;;;;8.37;5.80;;;9.60;99.90;8.60;98419;;;;583997;241;24067;-87
2023/10/26 10:07:07;;;;;;;9.37;6.10;;;9.60;99.90;8.60;98424;;;;593200;241;24114;-83
2023/10/26 10:09:35;;;;;;;7.90;6.33;;;9.50;99.90;8.60;98408;;;;592391;241;24078;-81
2023/10/26 10:12:14;;;;;;;9.03;6.10;;;9.40;99.90;8.60;98408;;;;583749;242;24068;-78
2023/10/26 10:14:54;;;;;;;8.77;5.80;;;9.40;99.90;8.70;98411;;;;583571;242;24099;-82
2023/10/26 10:17:23;;;;;;;15.47;5.70;;;9.50;99.90;8.80;98399;;;;583782;242;24060;-84
2023/10/26 10:19:48;;;;;;;9.87;7.10;;;9.70;99.90;8.90;98395;;;;583091;242;24129;-84
2023/10/26 10:22:37;;;;;;;8.73;6.00;;;9.80;99.90;9.10;98397;;;;592449;238;24065;-83
2023/10/26 10:25:12;;;;;;;9.80;4.67;;;10.00;99.90;9.10;98398;;;;592877;241;24060;-84
2023/10/26 10:27:40;;;;;;;8.50;5.60;;;10.00;99.90;9.10;98399;;;;583577;242;24083;-81
2023/10/26 10:30:11;;;;;;;6.80;5.37;;;10.00;99.90;9.20;98396;;;;578449;242;35314;-79
2023/10/26 10:32:52;;;;;;;4.67;4.17;;;10.00;99.90;9.20;98392;;;;583668;242;24190;-83
2023/10/26 10:35:22;;;;;;;5.03;4.40;;;10.00;99.90;9.10;98396;;;;583511;242;24067;-83
2023/10/26 10:38:15;;;;;;;4.07;3.67;;;10.00;99.90;9.00;98392;;;;592745;241;24064;-82
2023/10/26 10:40:54;;;;;;;6.20;3.47;;;9.90;99.90;9.00;98392;;;;592540;242;24096;-78
2023/10/26 10:43:37;;;;;;;6.60;3.50;;;9.90;99.90;9.00;98398;;;;591195;238;24119;-81
2023/10/26 10:46:17;;;;;;;4.57;3.27;;;9.90;99.90;9.00;98397;;;;584145;241;24157;-82
2023/10/26 10:49:06;;;;;;;4.03;3.13;;;9.80;99.90;8.90;98388;;;;593052;241;24079;-82
2023/10/26 10:51:36;;;;;;;3.53;3.13;;;9.80;99.90;8.80;98384;;;;594946;241;24060;-84
2023/10/26 10:54:12;;;;;;;2.87;2.60;;;9.80;99.90;8.80;98388;;;;584926;241;24055;-83
2023/10/26 10:56:49;;;;;;;2.83;2.63;;;9.70;99.90;8.80;98391;;;;591545;241;24045;-81
2023/10/26 10:59:23;;;;;;;2.23;2.07;;;9.70;99.90;8.80;98387;;;;584837;241;24105;-82
2023/10/26 11:01:53;;;;;;;3.37;3.07;;;9.70;99.90;8.70;98383;;;;585046;240;24058;-83
2023/10/26 11:04:18;;;;;;;3.10;2.80;;;9.60;99.90;8.70;98385;;;;583054;240;24083;-82
2023/10/26 11:06:50;;;;;;;2.93;2.30;;;9.60;99.90;8.70;98384;;;;587355;240;24050;-75
2023/10/26 11:09:26;;;;;;;3.53;3.00;;;9.60;99.90;8.60;98388;;;;587454;240;24099;-76
2023/10/26 11:11:54;;;;;;;9.87;3.10;;;9.50;99.90;8.60;98395;;;;596528;238;24103;-76
2023/10/26 11:14:22;;;;;;;3.37;3.07;;;9.50;99.90;8.60;98395;;;;587429;240;24042;-77
2023/10/26 11:16:50;;;;;;;3.37;3.07;;;9.50;99.90;8.60;98384;;;;587240;240;24053;-77
2023/10/26 11:19:17;;;;;;;2.70;2.50;;;9.50;99.90;8.70;98379;;;;587640;240;24108;-83
2023/10/26 11:21:45;;;;;;;2.83;2.57;;;9.60;99.90;8.70;98386;;;;587780;240;24077;-78
2023/10/26 11:24:13;;;;;;;3.30;2.80;;;9.60;99.90;8.80;98378;;;;587754;240;24075;-78
2023/10/26 11:26:41;;;;;;;2.87;2.47;;;9.60;99.90;8.80;98372;;;;587330;240;24046;-77
2023/10/26 11:29:09;;;;;;;2.53;2.33;;;9.70;99.90;8.90;98383;;;;587582;240;24042;-80
2023/10/26 11:31:44;;;;;;;3.17;2.63;;;9.80;99.90;9.00;98378;;;;587110;240;24041;-78
2023/10/26 11:34:08;;;;;;;2.20;2.00;;;9.80;99.90;9.10;98375;;;;587459;240;24062;-77
2023/10/26 11:36:36;;;;;;;1.67;1.53;;;9.90;99.90;9.10;98377;;;;587598;240;24014;-78
2023/10/26 11:39:07;;;;;;;4.33;2.10;;;9.90;99.90;9.00;98371;;;;586807;240;24037;-77
2023/10/26 11:41:36;;;;;;;2.00;1.90;;;9.90;99.90;9.00;98382;;;;587102;239;24030;-77